Dai25myoujinmaru — JL6201 — position and weather

sailwx.info

Track history (hours):
 
Tides and Currents Weather Stations Pressure Air Temp Water Temp Dewpoint Dewpoint Depression Visibility Wind Speed Wind Dir Waves Ship Positions

Dai25myoujinmaru

Last reported at 2015-Jan-27 11:05 UTC. Time now 2015-Jan-27 21:02 UTC.
Position N 34°35' E 134°52'.

Length 88 m; draft 5.8 m.

Type: Tanker. MMSI: 431500272.

Date/timePositionNaut miles runAvg speedWind from/ knotsBaromVisibWave heightAir tempDewpointWater temp
2015-Jan-27 11:05N 34°35' E 134°52'611.1
2015-Jan-27 10:33N 34°37' E 134°58'10 9.9
2015-Jan-27 09:33N 34°34' E 135°10'1111.2
2015-Jan-27 08:33N 34°30' E 135°22'1 0.3
2015-Jan-27 04:32N 34°31' E 135°22'1211.7
2015-Jan-27 03:30N 34°25' E 135°09'1312.1
2015-Jan-27 02:28N 34°15' E 134°59'1112.2
2015-Jan-27 01:33N 34°04' E 135°01'212 9.9
2015-Jan-26 04:11N 34°47' E 139°13'711.6
2015-Jan-26 03:32N 34°52' E 139°19'1512.8
2015-Jan-26 02:23N 35°01' E 139°33'1113.0
2015-Jan-26 01:34N 35°08' E 139°43'1111.3
2015-Jan-26 00:34N 35°19' E 139°43'1010.4
2015-Jan-25 23:34N 35°29' E 139°48'0 0.2
2015-Jan-25 22:29N 35°29' E 139°48'3 3.5
2015-Jan-25 21:31N 35°32' E 139°46'0 0.0
2015-Jan-25 20:31N 35°32' E 139°46'0 0.0
2015-Jan-25 19:31N 35°32' E 139°46'0 0.0
2015-Jan-25 18:31N 35°32' E 139°46'0 0.0
2015-Jan-25 17:31N 35°32' E 139°46'0 0.0
2015-Jan-25 16:31N 35°32' E 139°46'0 0.0
2015-Jan-25 15:31N 35°32' E 139°46'0 0.0
2015-Jan-25 14:31N 35°32' E 139°46'0 0.0
2015-Jan-25 13:31N 35°32' E 139°46'0 0.0
2015-Jan-25 12:31N 35°32' E 139°46'0 0.0
2015-Jan-25 11:31N 35°32' E 139°46'0 0.0
2015-Jan-25 10:31N 35°32' E 139°46'0 0.0
2015-Jan-25 09:31N 35°32' E 139°46'0 0.0
2015-Jan-25 08:31N 35°32' E 139°46'0 0.0
2015-Jan-25 07:31N 35°32' E 139°46'0 0.0
2015-Jan-25 06:31N 35°32' E 139°46'0 0.0
2015-Jan-25 05:31N 35°32' E 139°46'1 1.1
2015-Jan-25 04:33N 35°31' E 139°46'6 5.7
2015-Jan-25 03:33N 35°25' E 139°45'3 3.2
2015-Jan-25 02:31N 35°22' E 139°44'0 0.0
2015-Jan-25 01:19N 35°22' E 139°44'0 0.0
2015-Jan-25 00:31N 35°22' E 139°44'0 0.0
2015-Jan-24 23:28N 35°22' E 139°44'0 0.0
2015-Jan-24 22:33N 35°22' E 139°44'0 0.0
2015-Jan-24 21:33N 35°22' E 139°44'0 0.0
2015-Jan-24 20:34N 35°22' E 139°44'0 0.0
2015-Jan-24 19:33N 35°22' E 139°44'0 0.0
2015-Jan-24 18:34N 35°22' E 139°44'0 0.0
2015-Jan-24 17:34N 35°22' E 139°44'0 0.0
2015-Jan-24 16:34N 35°22' E 139°44'0 0.1
2015-Jan-24 15:34N 35°22' E 139°44'3 2.9
2015-Jan-24 14:33N 35°19' E 139°44'1211.7
2015-Jan-24 13:33N 35°07' E 139°45'1313.2
2015-Jan-24 12:33N 34°58' E 139°34'  
2015-Jan-21 08:06N 34°09' E 134°59'1014.2
2015-Jan-21 07:25N 34°19' E 134°59'1213.5
2015-Jan-21 06:33N 34°27' E 135°10'1010.0
2015-Jan-21 05:33N 34°29' E 135°22'0 0.0
2015-Jan-21 03:24N 34°29' E 135°22'0 0.0
2015-Jan-21 02:06N 34°29' E 135°22'3 4.9
2015-Jan-21 01:33N 34°31' E 135°21'1 0.8
2015-Jan-21 00:32N 34°31' E 135°20'0 0.0
2015-Jan-20 23:33N 34°31' E 135°20'7 6.7
2015-Jan-20 22:32N 34°28' E 135°12'1513.1
2015-Jan-20 21:25N 34°18' E 134°60'1112.9
2015-Jan-20 20:33N 34°07' E 134°60'  
2015-Jan-18 15:06N 34°40' E 138°18'  
Track history (hours):
 
Tides and Currents Weather Stations Pressure Air Temp Water Temp Dewpoint Dewpoint Depression Visibility Wind Speed Wind Dir Waves Ship Positions

Dai25myoujinmaru

Last reported at 2015-Jan-27 11:05 UTC. Time now 2015-Jan-27 21:02 UTC.
Position N 34°35' E 134°52'.

Length 88 m; draft 5.8 m.

Type: Tanker. MMSI: 431500272.

Date/timePositionNaut miles runAvg speedWind from/ knotsBaromVisibWave heightAir tempDewpointWater temp
2015-Jan-27 11:05N 34°35' E 134°52'611.1
2015-Jan-27 10:33N 34°37' E 134°58'10 9.9
2015-Jan-27 09:33N 34°34' E 135°10'1111.2
2015-Jan-27 08:33N 34°30' E 135°22'1 0.3
2015-Jan-27 04:32N 34°31' E 135°22'1211.7
2015-Jan-27 03:30N 34°25' E 135°09'1312.1
2015-Jan-27 02:28N 34°15' E 134°59'1112.2
2015-Jan-27 01:33N 34°04' E 135°01'212 9.9
2015-Jan-26 04:11N 34°47' E 139°13'711.6
2015-Jan-26 03:32N 34°52' E 139°19'1512.8
2015-Jan-26 02:23N 35°01' E 139°33'1113.0
2015-Jan-26 01:34N 35°08' E 139°43'1111.3
2015-Jan-26 00:34N 35°19' E 139°43'1010.4
2015-Jan-25 23:34N 35°29' E 139°48'0 0.2
2015-Jan-25 22:29N 35°29' E 139°48'3 3.5
2015-Jan-25 21:31N 35°32' E 139°46'0 0.0
2015-Jan-25 20:31N 35°32' E 139°46'0 0.0
2015-Jan-25 19:31N 35°32' E 139°46'0 0.0
2015-Jan-25 18:31N 35°32' E 139°46'0 0.0
2015-Jan-25 17:31N 35°32' E 139°46'0 0.0
2015-Jan-25 16:31N 35°32' E 139°46'0 0.0
2015-Jan-25 15:31N 35°32' E 139°46'0 0.0
2015-Jan-25 14:31N 35°32' E 139°46'0 0.0
2015-Jan-25 13:31N 35°32' E 139°46'0 0.0
2015-Jan-25 12:31N 35°32' E 139°46'0 0.0
2015-Jan-25 11:31N 35°32' E 139°46'0 0.0
2015-Jan-25 10:31N 35°32' E 139°46'0 0.0
2015-Jan-25 09:31N 35°32' E 139°46'0 0.0
2015-Jan-25 08:31N 35°32' E 139°46'0 0.0
2015-Jan-25 07:31N 35°32' E 139°46'0 0.0
2015-Jan-25 06:31N 35°32' E 139°46'0 0.0
2015-Jan-25 05:31N 35°32' E 139°46'1 1.1
2015-Jan-25 04:33N 35°31' E 139°46'6 5.7
2015-Jan-25 03:33N 35°25' E 139°45'3 3.2
2015-Jan-25 02:31N 35°22' E 139°44'0 0.0
2015-Jan-25 01:19N 35°22' E 139°44'0 0.0
2015-Jan-25 00:31N 35°22' E 139°44'0 0.0
2015-Jan-24 23:28N 35°22' E 139°44'0 0.0
2015-Jan-24 22:33N 35°22' E 139°44'0 0.0
2015-Jan-24 21:33N 35°22' E 139°44'0 0.0
2015-Jan-24 20:34N 35°22' E 139°44'0 0.0
2015-Jan-24 19:33N 35°22' E 139°44'0 0.0
2015-Jan-24 18:34N 35°22' E 139°44'0 0.0
2015-Jan-24 17:34N 35°22' E 139°44'0 0.0
2015-Jan-24 16:34N 35°22' E 139°44'0 0.1
2015-Jan-24 15:34N 35°22' E 139°44'3 2.9
2015-Jan-24 14:33N 35°19' E 139°44'1211.7
2015-Jan-24 13:33N 35°07' E 139°45'1313.2
2015-Jan-24 12:33N 34°58' E 139°34'  
2015-Jan-21 08:06N 34°09' E 134°59'1014.2
2015-Jan-21 07:25N 34°19' E 134°59'1213.5
2015-Jan-21 06:33N 34°27' E 135°10'1010.0
2015-Jan-21 05:33N 34°29' E 135°22'0 0.0
2015-Jan-21 03:24N 34°29' E 135°22'0 0.0
2015-Jan-21 02:06N 34°29' E 135°22'3 4.9
2015-Jan-21 01:33N 34°31' E 135°21'1 0.8
2015-Jan-21 00:32N 34°31' E 135°20'0 0.0
2015-Jan-20 23:33N 34°31' E 135°20'7 6.7
2015-Jan-20 22:32N 34°28' E 135°12'1513.1
2015-Jan-20 21:25N 34°18' E 134°60'1112.9
2015-Jan-20 20:33N 34°07' E 134°60'  
2015-Jan-18 15:06N 34°40' E 138°18'  

Dump ship's entire track history